Home   Weather   USA   Big Indian   Past weeks
Flag for USA

Past Weather in Big Indian, New York, USA — Yesterday and Last 2 Weeks

Currently: 40 °F. Mostly cloudy. (Weather station: Sullivan County International Airport, USA). See more current weather

Past Weather in Big Indian — Graph

°F

Big Indian Temperature Yesterday

Maximum temperature yesterday: 43 °F (at 10:56 am)
Minimum temperature yesterday: 29 °F (at 1:56 am)
Average temperature yesterday: 38 °F

High & Low Weather Summary for the Past Weeks

 TemperatureHumidityPressure
High50 °F (Nov 26, 2:56 pm)100% (Nov 25, 10:08 am)30.44 "Hg (Nov 25, 10:08 am)
Low13 °F (Nov 21, 4:56 am)34% (Nov 21, 2:56 pm)29.37 "Hg (Nov 27, 9:03 pm)
Average33 °F72%30.05 "Hg
* Reported Nov 13 6:56 am — Nov 28 6:05 am, Big Indian. Weather by CustomWeather, © 2022

Note: Actual official high and low records may vary slightly from our data, if they occured in-between our weather recording intervals... More about our weather records

Big Indian Weather History for the Previous 24 Hours

Scroll right to see more
 ConditionsComfort  
Time TempWeatherWind HumidityBarometerVisibility
6:05 am
Mon, Nov 28
41 °FMostly cloudy.10 mph87%29.54 "Hg10 mi
5:34 am43 °FMostly cloudy.16 mph87%29.51 "Hg10 mi
5:05 am45 °FLight rain. Overcast.13 mph93%29.49 "Hg10 mi
3:56 am45 °FLight rain. Mostly cloudy.10 mph100%29.46 "Hg7 mi
3:11 am45 °FMostly cloudy.12 mph100%29.43 "Hg9 mi
2:33 am45 °FMostly cloudy.7 mph93%29.42 "Hg10 mi
1:56 am44 °FMostly cloudy.8 mph96%29.43 "Hg10 mi
12:56 am44 °FMostly cloudy.6 mph96%29.43 "Hg10 mi
11:56 pm
Sun, Nov 27
42 °FOvercast.7 mph100%29.42 "Hg10 mi
11:16 pm41 °FPassing clouds.5 mph100%29.39 "Hg9 mi
10:56 pm41 °FFog.6 mph100%29.41 "Hg4 mi
9:56 pm41 °FMostly cloudy.7 mph100%29.39 "Hg10 mi
9:19 pm39 °FFog.3 mph100%29.37 "Hg3 mi
9:03 pm39 °FFog.No wind100%29.37 "Hg1 mi
7:56 pm40 °FLight rain. Fog.No wind100%29.41 "Hg4 mi
6:15 pm39 °FRain. Fog.6 mph100%29.42 "Hg3 mi
6:03 pm39 °FLight rain. Fog.8 mph100%29.42 "Hg2 mi
5:08 pm39 °FLight rain. Fog.3 mph100%29.48 "Hg2 mi
4:59 pm39 °FLight rain. Fog.5 mph100%29.48 "Hg3 mi
4:33 pm39 °FLight rain. Fog.5 mph100%29.50 "Hg1 mi
4:24 pm39 °FLight rain. Fog.6 mph100%29.51 "Hg2 mi
3:24 pm39 °FLight rain. Fog.3 mph100%29.55 "Hg1 mi
3:11 pm39 °FLight rain. Fog.3 mph100%29.56 "Hg1 mi
2:34 pm39 °FLight rain. Fog.5 mph100%29.57 "Hg2 mi
2:24 pm39 °FRain. Fog.6 mph100%29.58 "Hg2 mi
2:08 pm39 °FLight rain. Fog.7 mph100%29.60 "Hg2 mi
1:37 pm39 °FRain. Fog.5 mph93%29.62 "Hg2 mi
12:56 pm40 °FRain. Mostly cloudy.3 mph89%29.69 "Hg9 mi
11:56 am43 °FOvercast.8 mph68%29.75 "Hg10 mi
10:56 am43 °FLight rain. Overcast.8 mph65%29.73 "Hg10 mi
9:56 am40 °FScattered clouds.3 mph65%29.80 "Hg10 mi
8:56 am38 °FSunny.No wind70%29.84 "Hg10 mi
7:56 am31 °FSunny.3 mph89%29.85 "Hg10 mi
Weather by CustomWeather, © 2022

See weather overview